createdAt,value
2023-03-07T00:00:13.671Z,943.6843872
2023-03-07T00:01:14.602Z,943.6715698
2023-03-07T00:02:16.216Z,943.6642456
2023-03-07T00:03:17.298Z,943.6491699
2023-03-07T00:04:18.294Z,943.6470337
2023-03-07T00:05:19.346Z,943.618103
2023-03-07T00:06:20.312Z,943.6235962
2023-03-07T00:07:21.304Z,943.6159668
2023-03-07T00:08:22.334Z,943.6085815
2023-03-07T00:09:23.304Z,943.6182251
2023-03-07T00:10:24.236Z,943.632019
2023-03-07T00:11:25.131Z,943.6710815
2023-03-07T00:12:26.688Z,943.6812744
2023-03-07T00:13:58.269Z,943.6431274
2023-03-07T00:14:59.194Z,943.657959
2023-03-07T00:16:00.248Z,943.6553345
2023-03-07T00:17:01.087Z,943.6542358
2023-03-07T00:18:02.049Z,943.6467285
2023-03-07T00:19:03.092Z,943.5646973
2023-03-07T00:20:04.176Z,943.5925293
2023-03-07T00:21:05.142Z,943.5491333
2023-03-07T00:22:06.192Z,943.5689697
2023-03-07T00:23:07.602Z,943.4829102
2023-03-07T00:24:08.604Z,943.5186157
2023-03-07T00:25:09.670Z,943.5379639
2023-03-07T00:26:10.853Z,943.4494629
2023-03-07T00:27:11.853Z,943.5018921
2023-03-07T00:28:12.823Z,943.4597168
2023-03-07T00:29:14.905Z,943.4343872
2023-03-07T00:30:15.975Z,943.4511108
2023-03-07T00:31:17.210Z,943.4104004
2023-03-07T00:32:18.267Z,943.4297485
2023-03-07T00:33:19.688Z,943.4121704
2023-03-07T00:34:20.805Z,943.427124
2023-03-07T00:35:21.880Z,943.4417114
2023-03-07T00:36:22.902Z,943.4481201
2023-03-07T00:37:24.757Z,943.4434204
2023-03-07T00:38:25.760Z,943.4812622
2023-03-07T00:39:57.882Z,943.421875
2023-03-07T00:40:58.764Z,943.4781494
2023-03-07T00:41:59.838Z,943.4921265
2023-03-07T00:43:01.654Z,943.4921875
2023-03-07T00:44:02.623Z,943.5032959
2023-03-07T00:45:03.738Z,943.4905396
2023-03-07T00:46:04.951Z,943.5446167
2023-03-07T00:47:05.961Z,943.5462646
2023-03-07T00:48:06.919Z,943.5158081
2023-03-07T00:49:07.862Z,943.4820557
2023-03-07T00:50:08.750Z,943.52771
2023-03-07T00:51:09.874Z,943.4852905
2023-03-07T00:52:10.886Z,943.5181274
2023-03-07T00:53:12.616Z,943.5036011
2023-03-07T00:54:13.553Z,943.4956055
2023-03-07T00:55:14.709Z,943.4633789
2023-03-07T00:56:15.602Z,943.4852905
2023-03-07T00:57:16.613Z,943.5076294
2023-03-07T00:58:17.727Z,943.482605
2023-03-07T00:59:18.672Z,943.4473267
2023-03-07T01:00:20.135Z,943.4474487
2023-03-07T01:01:21.164Z,943.4307861
2023-03-07T01:02:22.151Z,943.4190063
2023-03-07T01:03:23.729Z,943.3895264
2023-03-07T01:04:24.726Z,943.3815918
2023-03-07T01:05:25.809Z,943.4587402
2023-03-07T01:06:57.290Z,943.4171143
2023-03-07T01:07:58.306Z,943.414978
2023-03-07T01:08:59.345Z,943.4437256
2023-03-07T01:10:01.161Z,943.3850098
2023-03-07T01:11:02.025Z,943.343689
2023-03-07T01:12:02.868Z,943.3864136
2023-03-07T01:13:04.683Z,943.3484497
2023-03-07T01:14:05.696Z,943.3757324
2023-03-07T01:15:06.670Z,943.3585815
2023-03-07T01:16:07.585Z,943.3793945
2023-03-07T01:17:08.425Z,943.3702393
2023-03-07T01:18:09.483Z,943.3984375
2023-03-07T01:19:10.698Z,943.3684082
2023-03-07T01:20:11.614Z,943.4257813
2023-03-07T01:21:12.514Z,943.4353638
2023-03-07T01:22:13.510Z,943.4223633
2023-03-07T01:23:15.210Z,943.3962402
2023-03-07T01:24:16.265Z,943.3598633
2023-03-07T01:25:17.302Z,943.3731079
2023-03-07T01:26:18.178Z,943.3693848
2023-03-07T01:27:19.121Z,943.378418
2023-03-07T01:28:20.085Z,943.4170532
2023-03-07T01:29:21.673Z,943.3704834
2023-03-07T01:30:22.660Z,943.3538208
2023-03-07T01:31:23.769Z,943.3748169
2023-03-07T01:32:24.489Z,943.3293457
2023-03-07T01:33:56.911Z,943.2874756
2023-03-07T01:34:58.781Z,943.3057861
2023-03-07T01:35:59.817Z,943.2770386
2023-03-07T01:37:00.642Z,943.2896729
2023-03-07T01:38:01.465Z,943.2912598
2023-03-07T01:39:02.377Z,943.2987671
2023-03-07T01:40:04.183Z,943.2474365
2023-03-07T01:41:05.143Z,943.2143555
2023-03-07T01:42:06.101Z,943.2051392
2023-03-07T01:43:07.746Z,943.2334595
2023-03-07T01:44:08.618Z,943.2149048
2023-03-07T01:45:09.557Z,943.1581421
2023-03-07T01:46:10.820Z,943.1704712
2023-03-07T01:47:11.777Z,943.1447144
2023-03-07T01:48:12.529Z,943.210022
2023-03-07T01:49:13.388Z,943.2288208
2023-03-07T01:50:14.528Z,943.1826782
2023-03-07T01:51:15.554Z,943.229248
2023-03-07T01:52:16.464Z,943.1922607
2023-03-07T01:53:18.130Z,943.185791
2023-03-07T01:54:18.971Z,943.1472168
2023-03-07T01:55:20.030Z,943.1841431
2023-03-07T01:56:20.947Z,943.1199951
2023-03-07T01:57:22.025Z,943.1659546
2023-03-07T01:58:22.938Z,943.1306152
2023-03-07T01:59:24.627Z,943.1300659
2023-03-07T02:00:26.002Z,943.0594482
2023-03-07T02:01:57.467Z,943.0407715
2023-03-07T02:02:58.563Z,943.0343628
2023-03-07T02:04:00.149Z,942.9979858
2023-03-07T02:05:00.899Z,942.9819336
2023-03-07T02:06:01.856Z,942.9658813
2023-03-07T02:07:02.841Z,942.930542
2023-03-07T02:08:03.887Z,942.907959
2023-03-07T02:09:04.801Z,942.9346924
2023-03-07T02:10:05.695Z,942.914978
2023-03-07T02:11:06.624Z,942.9174805
2023-03-07T02:12:07.605Z,942.9068604
2023-03-07T02:13:09.222Z,942.9283447
2023-03-07T02:14:10.422Z,942.934082
2023-03-07T02:15:12.062Z,942.9067383
2023-03-07T02:16:13.105Z,942.9293823
2023-03-07T02:17:14.027Z,942.928772
2023-03-07T02:18:15.001Z,942.9223633
2023-03-07T02:19:15.978Z,942.9519043
2023-03-07T02:20:16.898Z,942.9592285
2023-03-07T02:21:17.814Z,942.9840698
2023-03-07T02:22:18.697Z,942.9995117
2023-03-07T02:23:20.147Z,942.9957275
2023-03-07T02:24:21.139Z,942.9957275
2023-03-07T02:25:22.077Z,943.0028076
2023-03-07T02:26:22.981Z,943.0092163
2023-03-07T02:27:23.831Z,943.0253296
2023-03-07T02:28:24.835Z,943.0204468
2023-03-07T02:29:57.099Z,943.0599976
2023-03-07T02:30:58.201Z,943.0125122
2023-03-07T02:31:58.987Z,943.0161133
2023-03-07T02:33:00.552Z,942.9406128
2023-03-07T02:34:02.229Z,942.9887695
2023-03-07T02:35:03.176Z,942.9284668
2023-03-07T02:36:04.166Z,942.9406128
2023-03-07T02:37:05.052Z,942.9277954
2023-03-07T02:38:05.896Z,943.0050049
2023-03-07T02:39:07.032Z,942.9144287
2023-03-07T02:40:07.908Z,942.9279175
2023-03-07T02:41:08.847Z,942.9209595
2023-03-07T02:42:09.752Z,942.8952637
2023-03-07T02:43:10.733Z,942.9337769
2023-03-07T02:44:12.649Z,942.9509277
2023-03-07T02:45:13.525Z,942.8651733
2023-03-07T02:46:14.690Z,942.8834229
2023-03-07T02:47:15.744Z,942.8747559
2023-03-07T02:48:16.557Z,942.8706055
2023-03-07T02:49:18.161Z,942.8775024
2023-03-07T02:50:19.059Z,942.8468628
2023-03-07T02:51:20.078Z,942.8201294
2023-03-07T02:52:21.048Z,942.848877
2023-03-07T02:53:21.912Z,942.8035278
2023-03-07T02:54:23.622Z,942.7520142
2023-03-07T02:55:24.446Z,942.7134399
2023-03-07T02:56:57.164Z,942.7103271
2023-03-07T02:57:58.104Z,942.7043457
2023-03-07T02:58:58.988Z,942.7070313
2023-03-07T02:59:59.845Z,942.6403198
2023-03-07T03:01:00.853Z,942.6605225
2023-03-07T03:02:01.918Z,942.5942383
2023-03-07T03:03:03.715Z,942.6755981
2023-03-07T03:04:05.223Z,942.6617432
2023-03-07T03:05:06.231Z,942.6715698
2023-03-07T03:06:07.073Z,942.6489258
2023-03-07T03:07:08.711Z,942.6411133
2023-03-07T03:08:09.654Z,942.6560059
2023-03-07T03:09:10.697Z,942.6239014
2023-03-07T03:10:11.592Z,942.6143799
2023-03-07T03:11:12.405Z,942.5837402
2023-03-07T03:12:13.358Z,942.6095581
2023-03-07T03:13:14.342Z,942.5704956
2023-03-07T03:14:16.131Z,942.5361938
2023-03-07T03:15:16.959Z,942.5228271
2023-03-07T03:16:17.878Z,942.5229492
2023-03-07T03:17:18.756Z,942.5513916
2023-03-07T03:18:19.670Z,942.5375977
2023-03-07T03:19:20.701Z,942.557373
2023-03-07T03:20:21.706Z,942.5328369
2023-03-07T03:21:22.556Z,942.5317383
2023-03-07T03:22:23.452Z,942.5579834
2023-03-07T03:23:24.424Z,942.5367432
2023-03-07T03:24:56.663Z,942.5250244
2023-03-07T03:25:57.506Z,942.5116577
2023-03-07T03:26:58.353Z,942.5390625
2023-03-07T03:28:00.105Z,942.491272
2023-03-07T03:29:01.134Z,942.5025024
2023-03-07T03:30:02.187Z,942.4436035
2023-03-07T03:31:03.277Z,942.5126343
2023-03-07T03:32:04.161Z,942.4827881
2023-03-07T03:33:05.020Z,942.4945068
2023-03-07T03:34:06.741Z,942.4590454
2023-03-07T03:35:07.732Z,942.4735107
2023-03-07T03:36:08.841Z,942.4040527
2023-03-07T03:37:09.564Z,942.3765869
2023-03-07T03:38:10.630Z,942.383606
2023-03-07T03:39:11.722Z,942.3948364
2023-03-07T03:40:12.797Z,942.3609619
2023-03-07T03:41:13.884Z,942.3573608
2023-03-07T03:42:14.760Z,942.3613892
2023-03-07T03:43:15.674Z,942.3490601
2023-03-07T03:44:17.211Z,942.3326416
2023-03-07T03:45:18.178Z,942.3083496
2023-03-07T03:46:19.217Z,942.342041
2023-03-07T03:47:20.197Z,942.3601685
2023-03-07T03:48:21.114Z,942.3414307
2023-03-07T03:49:22.692Z,942.3175049
2023-03-07T03:50:23.734Z,942.2845459
2023-03-07T03:51:55.499Z,942.2849731
2023-03-07T03:52:56.443Z,942.2540894
2023-03-07T03:53:57.376Z,942.2474976
2023-03-07T03:54:59.201Z,942.2634277
2023-03-07T03:56:01.175Z,942.1972046
2023-03-07T03:57:02.246Z,942.2034302
2023-03-07T03:58:03.079Z,942.1381226
2023-03-07T03:59:04.108Z,942.1242065
2023-03-07T04:00:04.972Z,942.1101074
2023-03-07T04:01:05.934Z,942.0784302
2023-03-07T04:02:07.031Z,942.0912476
2023-03-07T04:03:08.753Z,942.0392456
2023-03-07T04:04:10.144Z,942.0151367
2023-03-07T04:05:11.305Z,942.0257568
2023-03-07T04:06:12.178Z,942.0101318
2023-03-07T04:07:13.180Z,941.9848633
2023-03-07T04:08:14.170Z,942.0239258
2023-03-07T04:09:15.273Z,942.026001
2023-03-07T04:10:16.067Z,941.9628296
2023-03-07T04:11:16.975Z,941.9177856
2023-03-07T04:12:17.835Z,941.9334106
2023-03-07T04:13:18.836Z,941.9498291
2023-03-07T04:14:20.750Z,941.9151611
2023-03-07T04:15:21.635Z,941.9021606
2023-03-07T04:16:22.622Z,941.87854
2023-03-07T04:17:23.382Z,941.8319702
2023-03-07T04:18:55.235Z,941.8171997
2023-03-07T04:19:56.115Z,941.8059082
2023-03-07T04:20:57.700Z,941.7935181
2023-03-07T04:21:58.537Z,941.8026733
2023-03-07T04:22:59.488Z,941.7393799
2023-03-07T04:24:00.586Z,941.784668
2023-03-07T04:25:02.152Z,941.7333374
2023-03-07T04:26:03.229Z,941.7449951
2023-03-07T04:27:04.074Z,941.7145386
2023-03-07T04:28:04.893Z,941.7307739
2023-03-07T04:29:05.823Z,941.6934204
2023-03-07T04:30:06.702Z,941.6950684
2023-03-07T04:31:07.518Z,941.687439
2023-03-07T04:32:09.222Z,941.6911011
2023-03-07T04:33:09.907Z,941.7145996
2023-03-07T04:34:10.811Z,941.6733398
2023-03-07T04:35:12.805Z,941.715332
2023-03-07T04:36:13.824Z,941.6895142
2023-03-07T04:37:14.838Z,941.7033691
2023-03-07T04:38:15.885Z,941.6992188
2023-03-07T04:39:16.896Z,941.6691895
2023-03-07T04:40:17.895Z,941.7279053
2023-03-07T04:41:18.925Z,941.7064819
2023-03-07T04:42:19.872Z,941.7131958
2023-03-07T04:43:21.606Z,941.6795044
2023-03-07T04:44:23.346Z,941.6647949
2023-03-07T04:45:54.753Z,941.7097168
2023-03-07T04:46:55.672Z,941.7468872
2023-03-07T04:47:56.691Z,941.7537231
2023-03-07T04:48:57.600Z,941.7354126
2023-03-07T04:49:58.589Z,941.7365723
2023-03-07T04:50:59.570Z,941.7321777
2023-03-07T04:52:01.192Z,941.7218628
2023-03-07T04:53:02.256Z,941.6994629
2023-03-07T04:54:03.261Z,941.6845093
2023-03-07T04:55:05.154Z,941.6578369
2023-03-07T04:56:05.917Z,941.6846924
2023-03-07T04:57:06.830Z,941.6343994
2023-03-07T04:58:07.663Z,941.6795044
2023-03-07T04:59:08.591Z,941.6517334
2023-03-07T05:00:10.586Z,941.6415405
2023-03-07T05:01:11.524Z,941.6411133
2023-03-07T05:02:12.455Z,941.6138306
2023-03-07T05:03:13.516Z,941.6043701
2023-03-07T05:04:14.624Z,941.6314697
2023-03-07T05:05:16.238Z,941.5892334
2023-03-07T05:06:17.225Z,941.5608521
2023-03-07T05:07:18.141Z,941.5576782
2023-03-07T05:08:19.151Z,941.5507202
2023-03-07T05:09:20.189Z,941.5144043
2023-03-07T05:10:21.191Z,941.5384521
2023-03-07T05:11:22.056Z,941.5641479
2023-03-07T05:12:22.943Z,941.4594727
2023-03-07T05:13:54.555Z,941.4985962
2023-03-07T05:14:56.166Z,941.4483032
2023-03-07T05:15:57.290Z,941.477356
2023-03-07T05:16:58.097Z,941.439209
2023-03-07T05:17:59.012Z,941.4729004
2023-03-07T05:19:00.684Z,941.4254761
2023-03-07T05:20:01.674Z,941.4142456
2023-03-07T05:21:02.714Z,941.3810425
2023-03-07T05:22:03.515Z,941.382019
2023-03-07T05:23:04.390Z,941.4009399
2023-03-07T05:24:05.307Z,941.3601074
2023-03-07T05:25:07.159Z,941.3953247
2023-03-07T05:26:08.740Z,941.3990479
2023-03-07T05:27:09.536Z,941.3692017
2023-03-07T05:28:10.690Z,941.3909912
2023-03-07T05:29:11.576Z,941.4332886
2023-03-07T05:30:13.173Z,941.4090576
2023-03-07T05:31:14.224Z,941.3995361
2023-03-07T05:32:15.028Z,941.4002075
2023-03-07T05:33:15.909Z,941.3669434
2023-03-07T05:34:16.750Z,941.3659668
2023-03-07T05:35:18.616Z,941.3654785
2023-03-07T05:36:19.664Z,941.3588867
2023-03-07T05:37:20.649Z,941.3756104
2023-03-07T05:38:21.542Z,941.3445435
2023-03-07T05:39:22.486Z,941.3120117
2023-03-07T05:40:54.086Z,941.296875
2023-03-07T05:41:55.089Z,941.3011475
2023-03-07T05:42:56.140Z,941.3096924
2023-03-07T05:43:57.101Z,941.3016357
2023-03-07T05:44:58.708Z,941.281311
2023-03-07T05:45:59.752Z,941.3095093
2023-03-07T05:47:00.748Z,941.2973633
2023-03-07T05:48:01.724Z,941.2609253
2023-03-07T05:49:02.587Z,941.2277832
2023-03-07T05:50:04.065Z,941.291748
2023-03-07T05:51:05.036Z,941.2793579
2023-03-07T05:52:06.144Z,941.2884521
2023-03-07T05:53:07.037Z,941.3010864
2023-03-07T05:54:07.957Z,941.3694458
2023-03-07T05:55:09.652Z,941.3529663
2023-03-07T05:56:10.647Z,941.3695068
2023-03-07T05:57:11.689Z,941.3425903
2023-03-07T05:58:12.631Z,941.3638306
2023-03-07T05:59:13.552Z,941.3657837
2023-03-07T06:00:14.463Z,941.2977905
2023-03-07T06:01:16.072Z,941.2929077
2023-03-07T06:02:17.080Z,941.258606
2023-03-07T06:03:17.894Z,941.3378296
2023-03-07T06:04:18.850Z,941.2965698
2023-03-07T06:05:20.665Z,941.2751465
2023-03-07T06:06:21.513Z,941.3237305
2023-03-07T06:07:22.594Z,941.2792358
2023-03-07T06:08:53.939Z,941.241272
2023-03-07T06:09:54.932Z,941.28125
2023-03-07T06:10:56.021Z,941.3067017
2023-03-07T06:11:56.764Z,941.2624512
2023-03-07T06:12:57.744Z,941.3093872
2023-03-07T06:13:58.722Z,941.2762451
2023-03-07T06:15:00.690Z,941.2557983
2023-03-07T06:16:01.608Z,941.2717896
2023-03-07T06:17:02.470Z,941.2890625
2023-03-07T06:18:03.454Z,941.2642212
2023-03-07T06:19:05.164Z,941.2503052
2023-03-07T06:20:06.206Z,941.2642212
2023-03-07T06:21:07.228Z,941.2679443
2023-03-07T06:22:08.239Z,941.2870483
2023-03-07T06:23:09.128Z,941.2260132
2023-03-07T06:24:10.425Z,941.2355957
2023-03-07T06:25:12.209Z,941.2528076
2023-03-07T06:26:13.444Z,941.236084
2023-03-07T06:27:14.191Z,941.2537231
2023-03-07T06:28:15.179Z,941.2462769
2023-03-07T06:29:16.055Z,941.3215332
2023-03-07T06:30:17.154Z,941.2564087
2023-03-07T06:31:18.645Z,941.2786865
2023-03-07T06:32:19.621Z,941.2845459
2023-03-07T06:33:20.654Z,941.2902832
2023-03-07T06:34:21.537Z,941.2379761
2023-03-07T06:35:23.669Z,941.289978
2023-03-07T06:36:55.245Z,941.2679443
2023-03-07T06:37:56.193Z,941.321228
2023-03-07T06:38:57.103Z,941.3135986
2023-03-07T06:39:58.068Z,941.3153076
2023-03-07T06:40:59.070Z,941.2941895
2023-03-07T06:42:00.118Z,941.3096924
2023-03-07T06:43:01.151Z,941.2491455
2023-03-07T06:44:02.105Z,941.2983398
2023-03-07T06:45:02.993Z,941.2346802
2023-03-07T06:46:04.891Z,941.257019
2023-03-07T06:47:05.757Z,941.2619019
2023-03-07T06:48:06.709Z,941.2779541
2023-03-07T06:49:07.773Z,941.2736206
2023-03-07T06:50:09.116Z,941.2683716
2023-03-07T06:51:10.128Z,941.2837524
2023-03-07T06:52:11.416Z,941.2974243
2023-03-07T06:53:12.474Z,941.3554688
2023-03-07T06:54:14.325Z,941.2892456
2023-03-07T06:55:15.334Z,941.3057861
2023-03-07T06:56:17.115Z,941.2944336
2023-03-07T06:57:18.041Z,941.3345337
2023-03-07T06:58:19.030Z,941.3175049
2023-03-07T06:59:20.130Z,941.2848511
2023-03-07T07:00:20.998Z,941.2752075
2023-03-07T07:01:21.952Z,941.260498
2023-03-07T07:02:54.326Z,941.2792969
2023-03-07T07:03:55.171Z,941.2943726
2023-03-07T07:04:56.167Z,941.2815552
2023-03-07T07:05:57.596Z,941.239624
2023-03-07T07:06:58.574Z,941.2503662
2023-03-07T07:07:59.683Z,941.2147827
2023-03-07T07:09:00.683Z,941.2312622
2023-03-07T07:10:01.778Z,941.2304688
2023-03-07T07:11:02.493Z,941.2491455
2023-03-07T07:12:03.465Z,941.2806396
2023-03-07T07:13:04.462Z,941.2536011
2023-03-07T07:14:05.471Z,941.265625
2023-03-07T07:15:06.538Z,941.2935791
2023-03-07T07:16:08.166Z,941.2920532
2023-03-07T07:17:09.068Z,941.2593994
2023-03-07T07:18:11.506Z,941.2779541
2023-03-07T07:19:11.474Z,941.2748413
2023-03-07T07:20:12.512Z,941.2887573
2023-03-07T07:21:13.489Z,941.2878418
2023-03-07T07:22:14.368Z,941.2750854
2023-03-07T07:23:16.226Z,941.2867432
2023-03-07T07:24:17.260Z,941.2473145
2023-03-07T07:25:19.231Z,941.2474365
2023-03-07T07:26:21.179Z,941.2515869
2023-03-07T07:27:22.515Z,941.1673584
2023-03-07T07:28:53.995Z,941.1928711
2023-03-07T07:29:55.008Z,941.2404175
2023-03-07T07:30:56.732Z,941.2376709
2023-03-07T07:31:57.764Z,941.1939697
2023-03-07T07:32:58.767Z,941.2384644
2023-03-07T07:33:59.660Z,941.2349243
2023-03-07T07:35:00.685Z,941.222168
2023-03-07T07:36:02.770Z,941.2841187
2023-03-07T07:37:03.764Z,941.2493896
2023-03-07T07:38:04.707Z,941.2493896
2023-03-07T07:39:05.664Z,941.2885132
2023-03-07T07:40:06.716Z,941.3007813
2023-03-07T07:41:08.740Z,941.3258667
2023-03-07T07:42:09.694Z,941.3399048
2023-03-07T07:43:10.841Z,941.383728
2023-03-07T07:44:11.772Z,941.4324951
2023-03-07T07:45:13.714Z,941.4619751
2023-03-07T07:46:15.718Z,941.3973999
2023-03-07T07:47:16.673Z,941.3945313
2023-03-07T07:48:17.587Z,941.4126587
2023-03-07T07:49:18.826Z,941.4052124
2023-03-07T07:50:20.208Z,941.4085693
2023-03-07T07:51:21.348Z,941.3457031
2023-03-07T07:52:53.067Z,941.3099976
2023-03-07T07:53:54.080Z,941.2650146
2023-03-07T07:54:55.145Z,941.2555542
2023-03-07T07:55:56.721Z,941.2366943
2023-03-07T07:56:57.749Z,941.2641602
2023-03-07T07:57:58.640Z,941.2336426
2023-03-07T07:58:59.624Z,941.2320557
2023-03-07T08:00:00.513Z,941.2672119
2023-03-07T08:01:01.665Z,941.2267456
2023-03-07T08:02:02.767Z,941.237793
2023-03-07T08:03:04.851Z,941.2171021
2023-03-07T08:04:05.933Z,941.2197876
2023-03-07T08:05:07.231Z,941.1843872
2023-03-07T08:06:09.218Z,941.2443237
2023-03-07T08:07:11.299Z,941.1954956
2023-03-07T08:08:12.469Z,941.2393799
2023-03-07T08:09:14.762Z,941.1939087
2023-03-07T08:10:16.041Z,941.2052612
2023-03-07T08:11:17.189Z,941.2143555
2023-03-07T08:12:18.321Z,941.2075195
2023-03-07T08:13:19.673Z,941.190918
2023-03-07T08:14:20.694Z,941.1436157
2023-03-07T08:15:22.414Z,941.2711792
2023-03-07T08:16:54.774Z,941.2723389
2023-03-07T08:17:55.971Z,941.2773438
2023-03-07T08:18:57.036Z,941.3095093
2023-03-07T08:20:00.968Z,941.2803345
2023-03-07T08:20:59.614Z,941.2644043
2023-03-07T08:22:01.753Z,941.2620239
2023-03-07T08:23:02.815Z,941.274353
2023-03-07T08:24:03.850Z,941.2103271
2023-03-07T08:25:05.213Z,941.1890869
2023-03-07T08:26:07.301Z,941.1815796
2023-03-07T08:27:08.549Z,941.1726074
2023-03-07T08:28:09.558Z,941.1331177
2023-03-07T08:29:10.916Z,941.109314
2023-03-07T08:30:12.333Z,941.1098633
2023-03-07T08:31:25.042Z,941.0591431
2023-03-07T08:33:06.091Z,941.0896606
2023-03-07T08:34:06.818Z,941.0368652
2023-03-07T08:35:08.751Z,941.1011963
2023-03-07T08:36:10.025Z,941.0697021
2023-03-07T08:37:12.138Z,941.0424805
2023-03-07T08:38:12.827Z,941.0521851
2023-03-07T08:39:13.540Z,941.0059204
2023-03-07T08:40:14.447Z,940.9921265
2023-03-07T08:41:15.328Z,940.9675293
2023-03-07T08:42:17.188Z,940.9698486
2023-03-07T08:43:17.847Z,941.0003662
2023-03-07T08:44:18.691Z,941.013916
2023-03-07T08:45:22.771Z,940.9455566
2023-03-07T08:46:53.786Z,940.9032593
2023-03-07T08:47:54.733Z,940.9109497
2023-03-07T08:48:55.664Z,940.9040527
2023-03-07T08:49:56.600Z,940.9099121
2023-03-07T08:50:57.629Z,940.8880615
2023-03-07T08:51:58.648Z,940.8726807
2023-03-07T08:52:59.638Z,940.8540649
2023-03-07T08:54:00.526Z,940.8236084
2023-03-07T08:55:01.466Z,940.8342285
2023-03-07T08:56:02.443Z,940.8122559
2023-03-07T08:57:04.318Z,940.8032837
2023-03-07T08:58:05.250Z,940.8125
2023-03-07T08:59:06.179Z,940.7857666
2023-03-07T09:00:07.605Z,940.7781372
2023-03-07T09:01:08.602Z,940.7952881
2023-03-07T09:02:09.698Z,940.7626343
2023-03-07T09:03:10.685Z,940.7948608
2023-03-07T09:04:11.597Z,940.805603
2023-03-07T09:05:13.112Z,940.7514038
2023-03-07T09:06:14.089Z,940.7322388
2023-03-07T09:07:15.860Z,940.7728271
2023-03-07T09:08:16.916Z,940.7633667
2023-03-07T09:09:18.667Z,940.7390747
2023-03-07T09:10:19.550Z,940.7242432
2023-03-07T09:11:20.456Z,940.727478
2023-03-07T09:12:52.549Z,940.713623
2023-03-07T09:13:53.494Z,940.684082
2023-03-07T09:14:54.376Z,940.6524048
2023-03-07T09:15:55.340Z,940.5710449
2023-03-07T09:16:57.305Z,940.5931396
2023-03-07T09:17:58.300Z,940.548584
2023-03-07T09:19:00.186Z,940.548584
2023-03-07T09:20:01.133Z,940.5510864
2023-03-07T09:21:02.190Z,940.4996948
2023-03-07T09:22:03.113Z,940.4429932
2023-03-07T09:23:04.159Z,940.3764038
2023-03-07T09:24:05.109Z,940.3716431
2023-03-07T09:25:06.107Z,940.3602905
2023-03-07T09:26:07.657Z,940.3850098
2023-03-07T09:27:08.630Z,940.3666382
2023-03-07T09:28:10.544Z,940.3456421
2023-03-07T09:29:11.680Z,940.3364258
2023-03-07T09:30:12.783Z,940.3202515
2023-03-07T09:31:13.664Z,940.2477417
2023-03-07T09:32:15.059Z,940.2879028
2023-03-07T09:33:16.149Z,940.2932739
2023-03-07T09:34:17.139Z,940.3114624
2023-03-07T09:35:18.191Z,940.2823486
2023-03-07T09:36:19.607Z,940.2260132
2023-03-07T09:37:21.134Z,940.2243652
2023-03-07T09:38:53.353Z,940.1813965
2023-03-07T09:39:54.205Z,940.125
2023-03-07T09:40:55.157Z,940.1480713
2023-03-07T09:41:56.072Z,940.1275635
2023-03-07T09:42:56.999Z,940.0723267
2023-03-07T09:43:58.127Z,940.1081543
2023-03-07T09:44:58.910Z,940.0292969
2023-03-07T09:45:59.940Z,940.0521851
2023-03-07T09:47:01.645Z,940.0394287
2023-03-07T09:48:02.541Z,940.0532837
2023-03-07T09:49:03.633Z,940.0025024
2023-03-07T09:50:04.657Z,939.9943848
2023-03-07T09:51:11.712Z,939.9365845
2023-03-07T09:52:07.536Z,939.9481201
2023-03-07T09:53:07.336Z,939.9440918
2023-03-07T09:54:08.381Z,939.9434204
2023-03-07T09:55:09.348Z,939.9020386
2023-03-07T09:56:10.490Z,939.8779907
2023-03-07T09:57:11.431Z,939.8306274
2023-03-07T09:58:12.296Z,939.8085938
2023-03-07T09:59:22.435Z,939.7453003
2023-03-07T10:00:14.284Z,939.8439331
2023-03-07T10:01:15.345Z,939.755127
2023-03-07T10:02:16.256Z,939.7787476
2023-03-07T10:03:17.100Z,939.7788086
2023-03-07T10:04:18.285Z,939.7318726
2023-03-07T10:05:19.228Z,939.7603149
2023-03-07T10:06:20.250Z,939.7440796
2023-03-07T10:07:51.582Z,939.7072144
2023-03-07T10:08:52.492Z,939.6914063
2023-03-07T10:09:53.465Z,939.6988525
2023-03-07T10:10:54.424Z,939.6512451
2023-03-07T10:11:55.409Z,939.623291
2023-03-07T10:12:56.377Z,939.6412354
2023-03-07T10:13:57.351Z,939.6107788
2023-03-07T10:14:58.358Z,939.6220093
2023-03-07T10:15:59.175Z,939.616272
2023-03-07T10:17:00.195Z,939.5957642
2023-03-07T10:18:02.242Z,939.5999146
2023-03-07T10:19:01.798Z,939.5822754
2023-03-07T10:20:02.731Z,939.6154785
2023-03-07T10:21:03.497Z,939.5633545
2023-03-07T10:22:04.281Z,939.5917358
2023-03-07T10:23:05.153Z,939.567627
2023-03-07T10:24:05.977Z,939.5300293
2023-03-07T10:25:06.827Z,939.5427856
2023-03-07T10:26:07.748Z,939.4885864
2023-03-07T10:27:08.700Z,939.4743652
2023-03-07T10:28:09.597Z,939.4782715
2023-03-07T10:29:10.722Z,939.5195313
2023-03-07T10:30:11.575Z,939.494873
2023-03-07T10:31:12.396Z,939.5427856
2023-03-07T10:32:13.339Z,939.5197144
2023-03-07T10:33:14.159Z,939.49823
2023-03-07T10:34:25.849Z,939.4918213
2023-03-07T10:35:15.936Z,939.4706421
2023-03-07T10:36:16.749Z,939.4384155
2023-03-07T10:37:17.631Z,939.4040527
2023-03-07T10:38:18.472Z,939.3961182
2023-03-07T10:39:19.334Z,939.3448486
2023-03-07T10:40:20.804Z,939.3807983
2023-03-07T10:41:51.970Z,939.4078369
2023-03-07T10:42:52.826Z,939.4411011
2023-03-07T10:43:53.650Z,939.4671631
2023-03-07T10:44:54.500Z,939.3757935
2023-03-07T10:45:55.493Z,939.3491211
2023-03-07T10:46:56.749Z,939.3225098
2023-03-07T10:47:57.083Z,939.3798218
2023-03-07T10:48:57.873Z,939.3096313
2023-03-07T10:49:58.707Z,939.3444824
2023-03-07T10:50:59.578Z,939.3389893
2023-03-07T10:52:00.377Z,939.3657227
2023-03-07T10:53:01.204Z,939.246582
2023-03-07T10:54:02.016Z,939.2856445
2023-03-07T10:55:02.853Z,939.324707
2023-03-07T10:56:03.701Z,939.3556519
2023-03-07T10:57:04.542Z,939.2970581
2023-03-07T10:58:05.314Z,939.3591919
2023-03-07T10:59:06.119Z,939.2636108
2023-03-07T11:00:06.901Z,939.1995239
2023-03-07T11:01:07.862Z,939.2800903
2023-03-07T11:02:08.649Z,939.2209473
2023-03-07T11:03:09.439Z,939.2543945
2023-03-07T11:04:10.520Z,939.2321777
2023-03-07T11:05:11.412Z,939.1774902
2023-03-07T11:06:12.153Z,939.2196655
2023-03-07T11:07:13.046Z,939.2062378
2023-03-07T11:08:13.896Z,939.2088013
2023-03-07T11:09:14.705Z,939.2380981
2023-03-07T11:10:15.645Z,939.1972656
2023-03-07T11:11:16.533Z,939.1734619
2023-03-07T11:12:17.370Z,939.1647949
2023-03-07T11:13:18.181Z,939.1715698
2023-03-07T11:14:19.150Z,939.2041626